createdAt,value
2018-11-07T00:00:23.469Z,98249.71
2018-11-07T00:02:51.683Z,98254.00
2018-11-07T00:05:20.328Z,98258.14
2018-11-07T00:07:49.183Z,98266.41
2018-11-07T00:10:17.203Z,98268.38
2018-11-07T00:12:45.407Z,98268.53
2018-11-07T00:15:14.717Z,98265.66
2018-11-07T00:17:43.287Z,98263.30
2018-11-07T00:20:12.301Z,98267.58
2018-11-07T00:22:40.600Z,98269.55
2018-11-07T00:25:09.878Z,98273.20
2018-11-07T00:27:38.112Z,98263.68
2018-11-07T00:30:06.818Z,98268.78
2018-11-07T00:32:34.834Z,98266.75
2018-11-07T00:35:02.969Z,98258.72
2018-11-07T00:37:32.106Z,98260.53
2018-11-07T00:40:00.193Z,98258.17
2018-11-07T00:42:28.688Z,98251.34
2018-11-07T00:44:56.733Z,98250.98
2018-11-07T00:47:24.934Z,98258.77
2018-11-07T00:49:53.002Z,98260.24
2018-11-07T00:52:21.093Z,98263.53
2018-11-07T00:54:49.250Z,98259.48
2018-11-07T00:57:17.382Z,98256.82
2018-11-07T00:59:45.479Z,98264.45
2018-11-07T01:02:13.594Z,98272.72
2018-11-07T01:04:41.693Z,98278.14
2018-11-07T01:07:09.767Z,98279.28
2018-11-07T01:09:37.914Z,98281.57
2018-11-07T01:12:05.985Z,98273.75
2018-11-07T01:14:34.093Z,98269.58
2018-11-07T01:17:02.198Z,98269.88
2018-11-07T01:19:30.286Z,98280.98
2018-11-07T01:21:58.351Z,98282.45
2018-11-07T01:24:26.483Z,98292.84
2018-11-07T01:26:55.341Z,98283.37
2018-11-07T01:29:23.405Z,98286.17
2018-11-07T01:31:51.481Z,98279.68
2018-11-07T01:34:19.567Z,98272.67
2018-11-07T01:36:47.648Z,98266.19
2018-11-07T01:39:15.703Z,98277.43
2018-11-07T01:41:43.833Z,98276.25
2018-11-07T01:44:11.869Z,98266.62
2018-11-07T01:46:40.070Z,98269.05
2018-11-07T01:49:08.182Z,98274.52
2018-11-07T01:51:36.236Z,98274.17
2018-11-07T01:54:04.306Z,98280.45
2018-11-07T01:56:32.368Z,98281.07
2018-11-07T01:59:00.444Z,98276.42
2018-11-07T02:01:28.628Z,98268.94
2018-11-07T02:03:57.478Z,98272.22
2018-11-07T02:06:25.546Z,98277.30
2018-11-07T02:08:53.702Z,98276.45
2018-11-07T02:11:21.793Z,98269.12
2018-11-07T02:13:49.848Z,98264.80
2018-11-07T02:16:18.023Z,98263.62
2018-11-07T02:18:46.112Z,98261.59
2018-11-07T02:21:14.194Z,98261.73
2018-11-07T02:23:42.250Z,98263.20
2018-11-07T02:26:10.448Z,98266.34
2018-11-07T02:28:38.515Z,98259.84
2018-11-07T02:31:06.666Z,98260.47
2018-11-07T02:33:34.729Z,98268.43
2018-11-07T02:36:02.890Z,98275.69
2018-11-07T02:38:31.054Z,98281.13
2018-11-07T02:40:59.154Z,98283.59
2018-11-07T02:43:27.379Z,98286.25
2018-11-07T02:45:55.482Z,98274.56
2018-11-07T02:48:23.610Z,98277.36
2018-11-07T02:50:51.705Z,98270.79
2018-11-07T02:53:19.948Z,98279.82
2018-11-07T02:55:47.989Z,98286.08
2018-11-07T02:58:16.090Z,98285.75
2018-11-07T03:00:44.289Z,98287.69
2018-11-07T03:03:12.419Z,98288.69
2018-11-07T03:05:40.523Z,98288.83
2018-11-07T03:08:08.693Z,98285.80
2018-11-07T03:10:36.957Z,98281.13
2018-11-07T03:13:05.012Z,98275.11
2018-11-07T03:15:33.225Z,98280.92
2018-11-07T03:18:01.354Z,98276.58
2018-11-07T03:20:29.455Z,98268.29
2018-11-07T03:22:57.733Z,98266.62
2018-11-07T03:25:25.886Z,98263.13
2018-11-07T03:27:54.110Z,98255.31
2018-11-07T03:30:22.229Z,98244.14
2018-11-07T03:32:50.326Z,98245.61
2018-11-07T03:35:23.662Z,98241.64
2018-11-07T03:37:51.888Z,98243.11
2018-11-07T03:40:19.981Z,98244.20
2018-11-07T03:42:48.130Z,98254.47
2018-11-07T03:45:16.217Z,98252.78
2018-11-07T03:47:44.410Z,98253.77
2018-11-07T03:50:12.630Z,98249.08
2018-11-07T03:52:40.970Z,98243.78
2018-11-07T03:55:09.121Z,98240.42
2018-11-07T03:57:37.534Z,98226.61
2018-11-07T04:00:07.381Z,98239.38
2018-11-07T04:02:36.110Z,98242.66
2018-11-07T04:05:04.697Z,98253.77
2018-11-07T04:07:32.803Z,98256.52
2018-11-07T04:10:00.889Z,98241.61
2018-11-07T04:12:28.997Z,98240.91
2018-11-07T04:14:57.129Z,98257.39
2018-11-07T04:17:25.384Z,98264.02
2018-11-07T04:19:53.477Z,98252.73
2018-11-07T04:22:21.606Z,98248.40
2018-11-07T04:24:49.730Z,98253.36
2018-11-07T04:27:17.847Z,98247.69
2018-11-07T04:29:45.927Z,98239.87
2018-11-07T04:32:14.022Z,98243.04
2018-11-07T04:34:42.218Z,98242.33
2018-11-07T04:37:10.332Z,98238.84
2018-11-07T04:39:38.430Z,98241.97
2018-11-07T04:42:06.566Z,98246.08
2018-11-07T04:44:34.666Z,98240.92
2018-11-07T04:47:02.785Z,98241.05
2018-11-07T04:49:30.880Z,98239.73
2018-11-07T04:51:59.031Z,98236.38
2018-11-07T04:54:27.124Z,98246.27
2018-11-07T04:56:55.266Z,98259.66
2018-11-07T04:59:23.455Z,98268.45
2018-11-07T05:01:51.659Z,98264.95
2018-11-07T05:04:19.846Z,98265.09
2018-11-07T05:06:48.031Z,98271.72
2018-11-07T05:09:16.332Z,98281.47
2018-11-07T05:11:44.514Z,98288.80
2018-11-07T05:14:12.645Z,98278.48
2018-11-07T05:16:40.836Z,98278.48
2018-11-07T05:19:08.982Z,98272.47
2018-11-07T05:21:37.131Z,98267.68
2018-11-07T05:24:05.664Z,98272.13
2018-11-07T05:26:33.777Z,98266.47
2018-11-07T05:29:01.879Z,98269.11
2018-11-07T05:31:30.013Z,98265.41
2018-11-07T05:33:58.249Z,98257.47
2018-11-07T05:36:26.337Z,98257.13
2018-11-07T05:38:54.455Z,98263.04
2018-11-07T05:41:22.693Z,98255.09
2018-11-07T05:43:50.779Z,98260.88
2018-11-07T05:46:18.927Z,98264.03
2018-11-07T05:48:47.076Z,98267.29
2018-11-07T05:51:15.249Z,98270.76
2018-11-07T05:53:43.370Z,98264.78
2018-11-07T05:56:11.449Z,98268.25
2018-11-07T05:58:39.546Z,98256.46
2018-11-07T06:01:07.652Z,98251.78
2018-11-07T06:03:35.760Z,98249.98
2018-11-07T06:06:03.852Z,98243.50
2018-11-07T06:08:31.995Z,98240.98
2018-11-07T06:11:00.106Z,98238.81
2018-11-07T06:13:28.219Z,98245.57
2018-11-07T06:15:56.348Z,98248.70
2018-11-07T06:18:24.442Z,98247.03
2018-11-07T06:20:52.593Z,98242.72
2018-11-07T06:23:20.695Z,98245.98
2018-11-07T06:25:48.805Z,98246.46
2018-11-07T06:28:16.988Z,98249.25
2018-11-07T06:30:45.834Z,98251.56
2018-11-07T06:33:14.113Z,98262.63
2018-11-07T06:35:42.252Z,98264.56
2018-11-07T06:38:10.418Z,98268.53
2018-11-07T06:40:38.561Z,98283.58
2018-11-07T06:43:06.672Z,98277.94
2018-11-07T06:45:34.770Z,98270.47
2018-11-07T06:48:02.899Z,98278.92
2018-11-07T06:50:31.030Z,98275.43
2018-11-07T06:52:59.197Z,98280.35
2018-11-07T06:55:27.333Z,98280.02
2018-11-07T06:57:55.500Z,98270.03
2018-11-07T07:00:23.668Z,98276.66
2018-11-07T07:02:51.765Z,98274.98
2018-11-07T07:05:19.864Z,98280.28
2018-11-07T07:07:48.241Z,98280.76
2018-11-07T07:10:17.529Z,98282.56
2018-11-07T07:12:45.614Z,98283.55
2018-11-07T07:15:14.897Z,98281.88
2018-11-07T07:17:43.017Z,98286.33
2018-11-07T07:20:15.485Z,98287.65
2018-11-07T07:22:44.131Z,98287.65
2018-11-07T07:25:13.029Z,98291.63
2018-11-07T07:27:41.801Z,98295.59
2018-11-07T07:30:13.115Z,98300.89
2018-11-07T07:32:42.041Z,98304.86
2018-11-07T07:35:10.148Z,98310.50
2018-11-07T07:37:38.278Z,98314.47
2018-11-07T07:40:08.642Z,98319.63
2018-11-07T07:42:36.982Z,98316.84
2018-11-07T07:45:06.717Z,98316.73
2018-11-07T07:47:34.827Z,98316.23
2018-11-07T07:50:02.995Z,98317.93
2018-11-07T07:52:31.058Z,98313.34
2018-11-07T07:54:59.288Z,98315.86
2018-11-07T07:57:27.438Z,98311.75
2018-11-07T07:59:55.553Z,98306.45
2018-11-07T08:02:23.695Z,98309.11
2018-11-07T08:04:52.391Z,98305.34
2018-11-07T08:07:20.562Z,98303.39
2018-11-07T08:09:48.716Z,98302.64
2018-11-07T08:12:16.831Z,98305.09
2018-11-07T08:14:44.970Z,98303.66
2018-11-07T08:17:13.129Z,98296.70
2018-11-07T08:19:41.246Z,98292.73
2018-11-07T08:22:09.333Z,98294.73
2018-11-07T08:24:37.431Z,98299.08
2018-11-07T08:27:05.639Z,98291.13
2018-11-07T08:29:33.794Z,98293.27
2018-11-07T08:32:01.951Z,98298.47
2018-11-07T08:34:30.137Z,98293.51
2018-11-07T08:36:58.242Z,98299.14
2018-11-07T08:39:26.347Z,98297.34
2018-11-07T08:41:54.450Z,98305.15
2018-11-07T08:44:22.550Z,98301.41
2018-11-07T08:46:50.646Z,98295.13
2018-11-07T08:49:18.795Z,98293.33
2018-11-07T08:51:46.930Z,98305.45
2018-11-07T08:54:15.046Z,98304.97
2018-11-07T08:56:43.162Z,98314.95
2018-11-07T08:59:11.258Z,98306.88
2018-11-07T09:01:39.392Z,98309.38
2018-11-07T09:04:07.476Z,98312.38
2018-11-07T09:06:35.614Z,98306.45
2018-11-07T09:09:03.772Z,98307.64
2018-11-07T09:11:31.901Z,98300.91
2018-11-07T09:14:00.079Z,98305.56
2018-11-07T09:16:28.285Z,98307.26
2018-11-07T09:18:56.400Z,98301.45
2018-11-07T09:21:24.505Z,98308.16
2018-11-07T09:23:52.624Z,98304.53
2018-11-07T09:26:21.496Z,98304.90
2018-11-07T09:28:50.393Z,98298.13
2018-11-07T09:31:18.487Z,98294.87
2018-11-07T09:33:46.599Z,98295.23
2018-11-07T09:36:14.705Z,98294.95
2018-11-07T09:38:42.787Z,98295.33
2018-11-07T09:41:10.889Z,98297.84
2018-11-07T09:43:39.014Z,98309.02
2018-11-07T09:46:07.154Z,98304.89
2018-11-07T09:48:35.246Z,98303.09
2018-11-07T09:51:03.344Z,98298.47
2018-11-07T09:53:31.428Z,98306.31
2018-11-07T09:58:06.964Z,98309.30
2018-11-07T10:00:35.063Z,98300.50
2018-11-07T10:03:03.225Z,98307.64
2018-11-07T10:05:31.416Z,98307.13
2018-11-07T10:07:59.468Z,98305.66
2018-11-07T10:10:27.586Z,98304.70
2018-11-07T10:12:55.684Z,98306.23
2018-11-07T10:15:23.827Z,98304.42
2018-11-07T10:17:51.930Z,98303.33
2018-11-07T10:20:22.529Z,98307.64
2018-11-07T10:22:50.890Z,98307.98
2018-11-07T10:25:19.187Z,98303.52
2018-11-07T10:27:47.532Z,98300.02
2018-11-07T10:30:16.929Z,98295.91
2018-11-07T10:32:45.850Z,98286.63
2018-11-07T10:35:13.982Z,98289.64
2018-11-07T10:37:42.133Z,98283.86
2018-11-07T10:40:12.431Z,98282.88
2018-11-07T10:42:40.571Z,98282.53
2018-11-07T10:45:09.082Z,98278.89
2018-11-07T10:47:37.204Z,98276.38
2018-11-07T10:50:06.530Z,98280.22
2018-11-07T10:52:34.615Z,98282.88
2018-11-07T10:55:03.422Z,98282.88
2018-11-07T10:57:31.664Z,98280.56
2018-11-07T10:59:59.785Z,98279.23
2018-11-07T11:02:33.230Z,98283.21
2018-11-07T11:05:01.374Z,98284.91
2018-11-07T11:07:29.550Z,98274.78
2018-11-07T11:09:57.676Z,98282.25
2018-11-07T11:12:25.801Z,98279.45
2018-11-07T11:14:53.958Z,98277.28
2018-11-07T11:17:22.091Z,98271.14
2018-11-07T11:19:50.183Z,98273.67
2018-11-07T11:22:18.291Z,98273.02
2018-11-07T11:24:46.430Z,98269.89
2018-11-07T11:27:14.565Z,98276.05
2018-11-07T11:29:42.744Z,98272.06
2018-11-07T11:32:10.893Z,98270.59
2018-11-07T11:34:39.073Z,98269.13
2018-11-07T11:37:07.201Z,98270.79
2018-11-07T11:39:35.285Z,98267.03
2018-11-07T11:42:03.493Z,98274.52
2018-11-07T11:44:31.584Z,98270.87
2018-11-07T11:46:59.687Z,98273.67
2018-11-07T11:49:27.867Z,98267.18
2018-11-07T11:51:55.966Z,98262.84
2018-11-07T11:54:24.173Z,98263.48
2018-11-07T11:56:52.282Z,98265.63
2018-11-07T11:59:20.654Z,98269.46
2018-11-07T12:01:48.489Z,98261.88
2018-11-07T12:04:16.606Z,98270.68
2018-11-07T12:06:44.689Z,98267.18
2018-11-07T12:09:12.827Z,98271.02
2018-11-07T12:11:41.002Z,98271.02
2018-11-07T12:14:10.054Z,98276.18
2018-11-07T12:16:38.179Z,98267.74
2018-11-07T12:19:06.374Z,98270.03
2018-11-07T12:21:34.462Z,98276.52
2018-11-07T12:24:02.600Z,98280.02
2018-11-07T12:26:30.754Z,98281.82
2018-11-07T12:28:58.871Z,98285.69
2018-11-07T12:31:26.959Z,98279.88
2018-11-07T12:33:55.054Z,98279.88
2018-11-07T12:36:23.209Z,98281.56
2018-11-07T12:38:51.282Z,98282.52
2018-11-07T12:41:19.380Z,98276.26
2018-11-07T12:43:47.503Z,98281.05
2018-11-07T12:46:15.594Z,98281.05
2018-11-07T12:48:43.775Z,98284.92
2018-11-07T12:51:12.914Z,98283.23
2018-11-07T12:53:41.106Z,98282.27
2018-11-07T12:56:09.202Z,98282.61
2018-11-07T12:58:37.346Z,98278.30
2018-11-07T13:01:05.629Z,98278.30
2018-11-07T13:03:33.834Z,98280.95
2018-11-07T13:06:01.946Z,98271.66
2018-11-07T13:08:30.079Z,98272.14
2018-11-07T13:10:58.177Z,98267.94
2018-11-07T13:13:26.281Z,98262.00
2018-11-07T13:15:54.375Z,98270.11
2018-11-07T13:18:22.493Z,98270.11
2018-11-07T13:20:50.606Z,98263.48
2018-11-07T13:23:18.726Z,98272.28
2018-11-07T13:25:46.825Z,98271.09
2018-11-07T13:28:15.358Z,98268.92
2018-11-07T13:30:43.439Z,98267.74
2018-11-07T13:33:11.553Z,98269.41
2018-11-07T13:35:39.784Z,98271.72
2018-11-07T13:38:08.207Z,98273.05
2018-11-07T13:40:36.131Z,98276.18
2018-11-07T13:43:04.265Z,98277.17
2018-11-07T13:45:32.447Z,98281.14
2018-11-07T13:48:00.546Z,98275.61
2018-11-07T13:50:28.633Z,98287.07
2018-11-07T13:52:56.808Z,98283.72
2018-11-07T13:55:24.886Z,98281.91
2018-11-07T13:57:53.246Z,98294.33
2018-11-07T14:00:22.447Z,98292.15
2018-11-07T14:02:51.246Z,98307.39
2018-11-07T14:05:19.410Z,98313.51
2018-11-07T14:07:48.035Z,98318.81
2018-11-07T14:10:21.282Z,98321.12
2018-11-07T14:12:49.630Z,98323.92
2018-11-07T14:15:18.660Z,98331.03
2018-11-07T14:17:46.841Z,98331.51
2018-11-07T14:20:14.969Z,98333.34
2018-11-07T14:22:43.169Z,98335.15
2018-11-07T14:25:11.823Z,98348.03
2018-11-07T14:27:40.322Z,98350.22
2018-11-07T14:30:11.270Z,98342.88
2018-11-07T14:32:41.126Z,98357.45
2018-11-07T14:35:09.215Z,98352.16
2018-11-07T14:37:37.344Z,98354.47
2018-11-07T14:40:05.831Z,98351.48
2018-11-07T14:42:33.955Z,98348.83
2018-11-07T14:45:02.063Z,98357.74
2018-11-07T14:47:30.183Z,98355.09
2018-11-07T14:49:58.285Z,98355.56
2018-11-07T14:52:26.377Z,98363.05
2018-11-07T14:54:54.458Z,98355.23
2018-11-07T14:57:22.582Z,98358.02
2018-11-07T15:04:54.282Z,98357.36
2018-11-07T15:07:22.440Z,98361.14
2018-11-07T15:09:50.665Z,98362.94
2018-11-07T15:12:18.754Z,98368.24
2018-11-07T15:14:46.862Z,98373.06
2018-11-07T15:17:14.948Z,98367.91
2018-11-07T15:19:43.070Z,98375.72
2018-11-07T15:22:11.205Z,98369.56
2018-11-07T15:24:39.330Z,98366.06
2018-11-07T15:27:07.773Z,98358.62
2018-11-07T15:29:35.905Z,98362.46
2018-11-07T15:32:05.909Z,98361.61
2018-11-07T15:34:34.010Z,98367.91
2018-11-07T15:37:02.166Z,98370.55
2018-11-07T15:39:30.268Z,98367.05
2018-11-07T15:41:58.387Z,98374.16
2018-11-07T15:44:26.612Z,98381.77
2018-11-07T15:48:09.811Z,98379.13
2018-11-07T15:50:43.377Z,98388.54
2018-11-07T15:53:11.519Z,98395.78
2018-11-07T15:55:39.649Z,98391.47
2018-11-07T15:58:07.953Z,98404.72
2018-11-07T16:00:36.059Z,98399.89
2018-11-07T16:03:04.562Z,98403.88
2018-11-07T16:05:32.746Z,98411.34
2018-11-07T16:08:05.749Z,98415.33
2018-11-07T16:10:33.950Z,98421.95
2018-11-07T16:13:02.145Z,98423.75
2018-11-07T16:15:31.400Z,98432.55
2018-11-07T16:17:59.569Z,98437.86
2018-11-07T16:20:27.776Z,98439.66
2018-11-07T16:22:55.956Z,98441.45
2018-11-07T16:25:24.010Z,98449.92
2018-11-07T16:27:52.077Z,98448.59
2018-11-07T16:30:20.801Z,98449.92
2018-11-07T16:32:48.918Z,98452.20
2018-11-07T16:35:17.089Z,98453.52
2018-11-07T16:42:41.903Z,98452.34
2018-11-07T16:47:38.021Z,98462.94
2018-11-07T16:50:07.135Z,98463.41
2018-11-07T16:52:35.295Z,98465.72
2018-11-07T16:55:03.390Z,98471.03
2018-11-07T16:57:31.568Z,98469.33
2018-11-07T17:00:00.206Z,98476.43
2018-11-07T17:02:28.339Z,98483.43
2018-11-07T17:04:56.527Z,98482.69
2018-11-07T17:07:24.690Z,98485.70
2018-11-07T17:09:52.819Z,98486.19
2018-11-07T17:12:20.961Z,98487.17
2018-11-07T17:14:49.081Z,98493.93
2018-11-07T17:17:17.250Z,98493.42
2018-11-07T17:19:45.526Z,98505.01
2018-11-07T17:22:13.637Z,98509.83
2018-11-07T17:24:41.789Z,98505.01
2018-11-07T17:27:09.864Z,98505.95
2018-11-07T17:29:37.964Z,98514.76
2018-11-07T17:32:06.121Z,98518.39
2018-11-07T17:34:34.359Z,98521.86
2018-11-07T17:37:02.597Z,98522.84
2018-11-07T17:39:30.700Z,98521.52
2018-11-07T17:41:58.816Z,98523.96
2018-11-07T17:44:26.946Z,98527.09
2018-11-07T17:46:55.066Z,98532.39
2018-11-07T17:49:23.192Z,98543.13
2018-11-07T17:51:51.370Z,98546.59
2018-11-07T17:54:19.513Z,98548.77
2018-11-07T17:56:47.661Z,98544.08
2018-11-07T17:59:15.815Z,98547.57
2018-11-07T18:01:43.944Z,98548.55
2018-11-07T18:04:12.541Z,98555.66
2018-11-07T18:06:40.684Z,98558.44
2018-11-07T18:09:09.295Z,98551.81
2018-11-07T18:11:37.666Z,98559.29
2018-11-07T18:14:06.257Z,98571.69
2018-11-07T18:16:34.974Z,98576.01
2018-11-07T18:19:03.266Z,98582.29
2018-11-07T18:21:31.328Z,98582.77
2018-11-07T18:23:59.541Z,98586.39
2018-11-07T18:26:27.721Z,98587.72
2018-11-07T18:28:55.824Z,98585.55
2018-11-07T18:31:23.986Z,98587.34
2018-11-07T18:33:52.098Z,98589.66
2018-11-07T18:36:20.243Z,98593.97
2018-11-07T18:38:48.448Z,98598.08
2018-11-07T18:41:16.551Z,98599.88
2018-11-07T18:43:45.150Z,98602.05
2018-11-07T18:46:13.288Z,98595.56
2018-11-07T18:48:41.483Z,98594.58
2018-11-07T18:51:09.635Z,98594.23
2018-11-07T18:53:37.817Z,98599.53
2018-11-07T18:56:06.114Z,98599.19
2018-11-07T18:58:34.373Z,98605.81
2018-11-07T19:01:02.474Z,98603.64
2018-11-07T19:03:30.618Z,98601.84
2018-11-07T19:05:58.754Z,98603.16
2018-11-07T19:08:27.006Z,98604.11
2018-11-07T19:10:55.178Z,98612.44
2018-11-07T19:13:23.334Z,98616.89
2018-11-07T19:15:51.521Z,98613.39
2018-11-07T19:18:19.747Z,98619.19
2018-11-07T19:20:47.901Z,98630.61
2018-11-07T19:23:16.068Z,98623.64
2018-11-07T19:25:44.284Z,98626.77
2018-11-07T19:28:12.409Z,98624.97
2018-11-07T19:30:40.639Z,98625.09
2018-11-07T19:33:09.544Z,98634.84
2018-11-07T19:35:37.726Z,98636.17
2018-11-07T19:38:05.837Z,98638.69
2018-11-07T19:40:33.938Z,98639.67
2018-11-07T19:43:02.167Z,98640.14
2018-11-07T19:45:30.306Z,98645.09
2018-11-07T19:47:58.445Z,98642.45
2018-11-07T19:50:26.562Z,98644.72
2018-11-07T19:52:54.697Z,98648.22
2018-11-07T19:55:24.161Z,98642.20
2018-11-07T19:58:00.725Z,98644.85
2018-11-07T20:00:28.877Z,98653.27
2018-11-07T20:02:57.071Z,98657.97
2018-11-07T20:05:25.342Z,98663.78
2018-11-07T20:07:53.516Z,98666.42
2018-11-07T20:10:22.252Z,98669.08
2018-11-07T20:12:50.367Z,98671.83
2018-11-07T20:15:19.461Z,98670.50
2018-11-07T20:17:47.979Z,98670.50
2018-11-07T20:20:16.269Z,98671.83
2018-11-07T20:22:44.545Z,98677.13
2018-11-07T20:25:14.217Z,98678.95
2018-11-07T20:27:43.302Z,98678.58
2018-11-07T20:30:13.149Z,98683.75
2018-11-07T20:32:41.549Z,98680.88
2018-11-07T20:35:12.209Z,98682.67
2018-11-07T20:37:40.396Z,98686.66
2018-11-07T20:40:10.585Z,98695.92
2018-11-07T20:42:39.010Z,98700.88
2018-11-07T20:45:07.891Z,98705.33
2018-11-07T20:47:36.200Z,98698.70
2018-11-07T20:50:05.011Z,98703.15
2018-11-07T20:52:33.248Z,98704.47
2018-11-07T20:55:01.496Z,98706.30
2018-11-07T20:57:29.612Z,98708.45
2018-11-07T20:59:57.900Z,98705.92
2018-11-07T21:02:26.118Z,98703.78
2018-11-07T21:04:54.288Z,98712.20
2018-11-07T21:07:22.478Z,98717.98
2018-11-07T21:09:50.671Z,98729.42
2018-11-07T21:12:18.871Z,98722.55
2018-11-07T21:14:47.049Z,98726.52
2018-11-07T21:17:15.861Z,98730.49
2018-11-07T21:19:44.047Z,98736.30
2018-11-07T21:22:12.862Z,98738.09
2018-11-07T21:24:40.972Z,98748.34
2018-11-07T21:27:09.292Z,98754.12
2018-11-07T21:29:37.436Z,98751.47
2018-11-07T21:32:06.306Z,98750.61
2018-11-07T21:34:34.661Z,98749.77
2018-11-07T21:37:02.927Z,98755.19
2018-11-07T21:39:33.230Z,98752.54
2018-11-07T21:42:02.100Z,98753.52
2018-11-07T21:44:30.281Z,98761.34
2018-11-07T21:46:58.419Z,98765.44
2018-11-07T21:49:26.643Z,98765.44
2018-11-07T21:51:54.810Z,98760.27
2018-11-07T21:54:24.312Z,98767.36
2018-11-07T21:56:52.481Z,98772.31
2018-11-07T21:59:20.673Z,98770.98
2018-11-07T22:01:48.835Z,98778.94
2018-11-07T22:04:17.012Z,98779.88
2018-11-07T22:06:45.147Z,98782.52
2018-11-07T22:09:13.338Z,98786.88
2018-11-07T22:11:41.482Z,98789.27
2018-11-07T22:14:09.698Z,98786.63
2018-11-07T22:16:38.597Z,98791.06
2018-11-07T22:19:07.372Z,98788.07
2018-11-07T22:21:35.777Z,98790.38
2018-11-07T22:24:04.205Z,98791.70
2018-11-07T22:26:32.294Z,98792.64
2018-11-07T22:29:00.472Z,98789.52
2018-11-07T22:31:28.687Z,98797.12
2018-11-07T22:33:56.789Z,98798.06
2018-11-07T22:36:24.933Z,98802.03
2018-11-07T22:38:53.083Z,98803.83
2018-11-07T22:41:21.202Z,98811.43
2018-11-07T22:43:49.339Z,98811.91
2018-11-07T22:46:17.521Z,98811.08
2018-11-07T22:48:45.654Z,98811.08
2018-11-07T22:51:13.789Z,98823.47
2018-11-07T22:53:41.972Z,98832.86
2018-11-07T22:56:10.203Z,98834.19
2018-11-07T22:58:38.329Z,98834.19
2018-11-07T23:01:16.659Z,98832.98
2018-11-07T23:03:45.796Z,98820.22
2018-11-07T23:06:13.844Z,98815.52
2018-11-07T23:08:41.981Z,98815.98
2018-11-07T23:11:10.125Z,98812.14
2018-11-07T23:13:38.339Z,98825.76
2018-11-07T23:16:06.466Z,98828.41
2018-11-07T23:18:34.643Z,98825.38
2018-11-07T23:21:02.790Z,98834.64
2018-11-07T23:23:30.925Z,98831.17
2018-11-07T23:25:59.101Z,98825.50
2018-11-07T23:28:27.224Z,98822.11
2018-11-07T23:30:55.370Z,98833.95
2018-11-07T23:33:24.518Z,98840.19
2018-11-07T23:35:52.638Z,98840.19
2018-11-07T23:38:20.830Z,98851.63
2018-11-07T23:40:49.009Z,98853.08
2018-11-07T23:43:17.120Z,98852.69
2018-11-07T23:45:45.298Z,98854.14
2018-11-07T23:48:13.451Z,98856.31
2018-11-07T23:50:41.585Z,98850.67
2018-11-07T23:53:09.704Z,98853.31
2018-11-07T23:55:37.966Z,98857.34
2018-11-07T23:58:06.081Z,98860.50
